sensor_id;sensor_type;location;lat;lon;timestamp;pressure;altitude;pressure_sealevel;temperature;humidity
69737;BME280;64476;55.004;73.342;2023-03-03T00:03:01;99385.22;;;-10.60;51.60
69737;BME280;64476;55.004;73.342;2023-03-03T00:06:05;99410.63;;;-10.36;51.22
69737;BME280;64476;55.004;73.342;2023-03-03T00:09:09;99441.75;;;-10.08;51.26
69737;BME280;64476;55.004;73.342;2023-03-03T00:12:22;99446.69;;;-10.03;51.07
69737;BME280;64476;55.004;73.342;2023-03-03T00:15:26;99421.00;;;-10.19;51.03
69737;BME280;64476;55.004;73.342;2023-03-03T00:18:36;99358.09;;;-10.58;50.90
69737;BME280;64476;55.004;73.342;2023-03-03T00:21:44;99435.13;;;-10.12;50.69
69737;BME280;64476;55.004;73.342;2023-03-03T00:24:46;99451.31;;;-10.14;50.91
69737;BME280;64476;55.004;73.342;2023-03-03T00:27:49;99368.13;;;-10.54;51.06
69737;BME280;64476;55.004;73.342;2023-03-03T00:30:59;99380.06;;;-10.57;50.87
69737;BME280;64476;55.004;73.342;2023-03-03T00:34:25;99425.44;;;-10.47;51.35
69737;BME280;64476;55.004;73.342;2023-03-03T00:37:31;99423.72;;;-10.47;51.21
69737;BME280;64476;55.004;73.342;2023-03-03T00:40:37;99438.63;;;-10.38;51.04
69737;BME280;64476;55.004;73.342;2023-03-03T00:43:49;99435.97;;;-10.35;51.00
69737;BME280;64476;55.004;73.342;2023-03-03T00:46:55;99398.09;;;-10.64;51.28
69737;BME280;64476;55.004;73.342;2023-03-03T00:53:14;99445.03;;;-10.27;50.68
69737;BME280;64476;55.004;73.342;2023-03-03T00:56:19;99404.31;;;-10.48;50.87
69737;BME280;64476;55.004;73.342;2023-03-03T00:59:26;99465.69;;;-10.13;50.95
69737;BME280;64476;55.004;73.342;2023-03-03T01:02:28;99466.56;;;-10.14;50.91
69737;BME280;64476;55.004;73.342;2023-03-03T01:05:29;99454.81;;;-10.17;50.96
69737;BME280;64476;55.004;73.342;2023-03-03T01:08:36;99475.75;;;-10.10;50.63
69737;BME280;64476;55.004;73.342;2023-03-03T01:11:38;99451.75;;;-10.26;50.77
69737;BME280;64476;55.004;73.342;2023-03-03T01:14:39;99480.22;;;-10.17;51.12
69737;BME280;64476;55.004;73.342;2023-03-03T01:17:49;99445.63;;;-10.44;50.92
69737;BME280;64476;55.004;73.342;2023-03-03T01:20:58;99442.50;;;-10.51;50.93
69737;BME280;64476;55.004;73.342;2023-03-03T01:23:59;99470.81;;;-10.38;51.24
69737;BME280;64476;55.004;73.342;2023-03-03T01:27:06;99483.47;;;-10.37;50.90
69737;BME280;64476;55.004;73.342;2023-03-03T01:30:08;99475.16;;;-10.42;51.00
69737;BME280;64476;55.004;73.342;2023-03-03T01:33:16;99484.22;;;-10.35;50.93
69737;BME280;64476;55.004;73.342;2023-03-03T01:36:30;99487.75;;;-10.39;50.67
69737;BME280;64476;55.004;73.342;2023-03-03T01:39:32;99490.25;;;-10.37;51.04
69737;BME280;64476;55.004;73.342;2023-03-03T01:42:34;99480.97;;;-10.38;50.72
69737;BME280;64476;55.004;73.342;2023-03-03T01:48:58;99474.72;;;-10.53;50.69
69737;BME280;64476;55.004;73.342;2023-03-03T01:55:28;99434.06;;;-11.01;51.16
69737;BME280;64476;55.004;73.342;2023-03-03T01:58:36;99497.38;;;-10.72;51.02
69737;BME280;64476;55.004;73.342;2023-03-03T02:01:42;99493.03;;;-10.68;51.21
69737;BME280;64476;55.004;73.342;2023-03-03T02:04:44;99483.84;;;-10.72;51.21
69737;BME280;64476;55.004;73.342;2023-03-03T02:07:45;99477.22;;;-10.76;51.00
69737;BME280;64476;55.004;73.342;2023-03-03T02:10:58;99490.31;;;-10.89;51.09
69737;BME280;64476;55.004;73.342;2023-03-03T02:14:00;99490.72;;;-11.01;51.45
69737;BME280;64476;55.004;73.342;2023-03-03T02:17:06;99482.44;;;-11.06;51.29
69737;BME280;64476;55.004;73.342;2023-03-03T02:27:43;99492.13;;;-11.19;51.62
69737;BME280;64476;55.004;73.342;2023-03-03T02:30:57;99444.28;;;-11.56;51.42
69737;BME280;64476;55.004;73.342;2023-03-03T02:34:04;99470.09;;;-11.43;51.64
69737;BME280;64476;55.004;73.342;2023-03-03T02:37:11;99440.13;;;-11.59;51.81
69737;BME280;64476;55.004;73.342;2023-03-03T02:40:13;99488.97;;;-11.25;51.43
69737;BME280;64476;55.004;73.342;2023-03-03T02:43:31;99430.63;;;-11.50;51.59
69737;BME280;64476;55.004;73.342;2023-03-03T02:46:44;99500.88;;;-11.01;51.74
69737;BME280;64476;55.004;73.342;2023-03-03T02:49:56;99444.19;;;-11.26;51.72
69737;BME280;64476;55.004;73.342;2023-03-03T02:52:58;99419.34;;;-11.42;51.52
69737;BME280;64476;55.004;73.342;2023-03-03T02:56:00;99447.03;;;-11.09;51.33
69737;BME280;64476;55.004;73.342;2023-03-03T02:59:04;99463.59;;;-10.99;51.10
69737;BME280;64476;55.004;73.342;2023-03-03T03:02:09;99495.09;;;-10.79;51.13
69737;BME280;64476;55.004;73.342;2023-03-03T03:05:13;99485.00;;;-10.81;51.44
69737;BME280;64476;55.004;73.342;2023-03-03T03:08:26;99507.09;;;-10.60;51.04
69737;BME280;64476;55.004;73.342;2023-03-03T03:11:34;99458.50;;;-10.74;51.08
69737;BME280;64476;55.004;73.342;2023-03-03T03:14:46;99414.78;;;-11.07;50.47
69737;BME280;64476;55.004;73.342;2023-03-03T03:17:53;99452.69;;;-10.77;50.60
69737;BME280;64476;55.004;73.342;2023-03-03T03:20:55;99509.25;;;-10.47;50.68
69737;BME280;64476;55.004;73.342;2023-03-03T03:24:01;99514.00;;;-10.38;50.94
69737;BME280;64476;55.004;73.342;2023-03-03T03:27:04;99532.78;;;-10.19;50.21
69737;BME280;64476;55.004;73.342;2023-03-03T03:30:10;99469.81;;;-10.58;50.26
69737;BME280;64476;55.004;73.342;2023-03-03T03:33:13;99517.53;;;-10.19;50.09
69737;BME280;64476;55.004;73.342;2023-03-03T03:36:25;99518.88;;;-10.09;49.70
69737;BME280;64476;55.004;73.342;2023-03-03T03:39:30;99508.06;;;-10.14;49.42
69737;BME280;64476;55.004;73.342;2023-03-03T03:42:32;99491.38;;;-10.21;50.10
69737;BME280;64476;55.004;73.342;2023-03-03T03:45:34;99462.38;;;-10.39;49.63
69737;BME280;64476;55.004;73.342;2023-03-03T03:48:37;99520.19;;;-9.98;49.88
69737;BME280;64476;55.004;73.342;2023-03-03T03:51:51;99502.91;;;-10.12;49.94
69737;BME280;64476;55.004;73.342;2023-03-03T03:54:57;99525.06;;;-10.16;50.04
69737;BME280;64476;55.004;73.342;2023-03-03T03:58:31;99525.31;;;-10.23;50.11
69737;BME280;64476;55.004;73.342;2023-03-03T04:01:40;99445.00;;;-10.74;50.32
69737;BME280;64476;55.004;73.342;2023-03-03T04:04:42;99472.91;;;-10.49;50.42
69737;BME280;64476;55.004;73.342;2023-03-03T04:07:44;99511.50;;;-10.40;50.41
69737;BME280;64476;55.004;73.342;2023-03-03T04:10:57;99548.09;;;-10.20;50.63
69737;BME280;64476;55.004;73.342;2023-03-03T04:14:00;99533.69;;;-10.45;50.68
69737;BME280;64476;55.004;73.342;2023-03-03T04:17:05;99505.19;;;-10.78;50.56
69737;BME280;64476;55.004;73.342;2023-03-03T04:20:19;99546.34;;;-10.68;50.88
69737;BME280;64476;55.004;73.342;2023-03-03T04:23:23;99545.06;;;-10.55;50.93
69737;BME280;64476;55.004;73.342;2023-03-03T04:26:27;99544.31;;;-10.59;50.81
69737;BME280;64476;55.004;73.342;2023-03-03T04:29:34;99503.44;;;-10.76;50.76
69737;BME280;64476;55.004;73.342;2023-03-03T04:32:46;99426.75;;;-11.11;50.47
69737;BME280;64476;55.004;73.342;2023-03-03T04:35:53;99510.41;;;-10.83;51.45
69737;BME280;64476;55.004;73.342;2023-03-03T04:38:56;99508.88;;;-10.87;51.46
69737;BME280;64476;55.004;73.342;2023-03-03T04:41:57;99520.31;;;-10.75;51.04
69737;BME280;64476;55.004;73.342;2023-03-03T04:45:02;99534.75;;;-10.50;51.33
69737;BME280;64476;55.004;73.342;2023-03-03T04:48:05;99501.44;;;-10.66;51.32
69737;BME280;64476;55.004;73.342;2023-03-03T04:51:16;99517.16;;;-10.57;51.19
69737;BME280;64476;55.004;73.342;2023-03-03T04:54:24;99478.06;;;-10.76;51.20
69737;BME280;64476;55.004;73.342;2023-03-03T04:57:26;99512.91;;;-10.56;50.88
69737;BME280;64476;55.004;73.342;2023-03-03T05:00:28;99539.44;;;-10.40;51.45
69737;BME280;64476;55.004;73.342;2023-03-03T05:03:34;99519.66;;;-10.55;51.01
69737;BME280;64476;55.004;73.342;2023-03-03T05:06:42;99507.97;;;-10.86;51.50
69737;BME280;64476;55.004;73.342;2023-03-03T05:09:54;99540.16;;;-10.61;50.98
69737;BME280;64476;55.004;73.342;2023-03-03T05:13:27;99516.44;;;-10.60;51.48
69737;BME280;64476;55.004;73.342;2023-03-03T05:16:34;99524.84;;;-10.33;51.45
69737;BME280;64476;55.004;73.342;2023-03-03T05:19:41;99479.88;;;-10.54;50.89
69737;BME280;64476;55.004;73.342;2023-03-03T05:22:43;99450.25;;;-10.56;51.02
69737;BME280;64476;55.004;73.342;2023-03-03T05:25:46;99513.25;;;-10.17;50.78
69737;BME280;64476;55.004;73.342;2023-03-03T05:28:48;99466.47;;;-10.60;50.84
69737;BME280;64476;55.004;73.342;2023-03-03T05:31:50;99527.25;;;-10.30;51.10
69737;BME280;64476;55.004;73.342;2023-03-03T05:34:51;99507.69;;;-10.51;51.07
69737;BME280;64476;55.004;73.342;2023-03-03T05:37:54;99463.38;;;-10.68;51.31
69737;BME280;64476;55.004;73.342;2023-03-03T05:45:14;99492.19;;;-10.44;51.29
69737;BME280;64476;55.004;73.342;2023-03-03T05:48:17;99446.59;;;-10.72;51.05
69737;BME280;64476;55.004;73.342;2023-03-03T05:55:32;99502.03;;;-10.11;51.20
69737;BME280;64476;55.004;73.342;2023-03-03T05:58:38;99520.84;;;-9.93;50.75
69737;BME280;64476;55.004;73.342;2023-03-03T06:01:40;99467.56;;;-10.18;50.87
69737;BME280;64476;55.004;73.342;2023-03-03T06:04:42;99483.41;;;-9.90;50.94
69737;BME280;64476;55.004;73.342;2023-03-03T06:07:46;99507.84;;;-9.64;50.76
69737;BME280;64476;55.004;73.342;2023-03-03T06:11:22;99508.88;;;-9.46;50.80
69737;BME280;64476;55.004;73.342;2023-03-03T06:14:24;99510.47;;;-9.21;50.59
69737;BME280;64476;55.004;73.342;2023-03-03T06:17:36;99481.09;;;-9.08;50.34
69737;BME280;64476;55.004;73.342;2023-03-03T06:20:37;99470.47;;;-8.77;50.02
69737;BME280;64476;55.004;73.342;2023-03-03T06:23:43;99460.47;;;-8.61;49.00
69737;BME280;64476;55.004;73.342;2023-03-03T06:26:51;99358.28;;;-9.13;48.31
69737;BME280;64476;55.004;73.342;2023-03-03T06:29:53;99535.31;;;-8.04;48.64
69737;BME280;64476;55.004;73.342;2023-03-03T06:32:57;99504.34;;;-8.15;48.31
69737;BME280;64476;55.004;73.342;2023-03-03T06:36:17;99517.03;;;-7.95;48.09
69737;BME280;64476;55.004;73.342;2023-03-03T06:39:19;99510.75;;;-7.88;48.15
69737;BME280;64476;55.004;73.342;2023-03-03T06:42:24;99462.75;;;-8.16;48.12
69737;BME280;64476;55.004;73.342;2023-03-03T06:45:36;99469.91;;;-8.05;47.99
69737;BME280;64476;55.004;73.342;2023-03-03T06:48:37;99467.53;;;-7.91;47.52
69737;BME280;64476;55.004;73.342;2023-03-03T06:51:40;99476.78;;;-7.69;47.68
69737;BME280;64476;55.004;73.342;2023-03-03T06:54:42;99524.00;;;-7.60;47.54
69737;BME280;64476;55.004;73.342;2023-03-03T06:57:44;99497.59;;;-7.59;47.41
69737;BME280;64476;55.004;73.342;2023-03-03T07:04:23;99481.28;;;-7.38;46.71
69737;BME280;64476;55.004;73.342;2023-03-03T07:07:31;99522.63;;;-7.12;46.24
69737;BME280;64476;55.004;73.342;2023-03-03T07:10:46;99503.13;;;-7.32;46.46
69737;BME280;64476;55.004;73.342;2023-03-03T07:13:59;99506.25;;;-7.08;46.85
69737;BME280;64476;55.004;73.342;2023-03-03T07:17:04;99512.50;;;-6.97;45.89
69737;BME280;64476;55.004;73.342;2023-03-03T07:23:24;99513.75;;;-6.88;46.51
69737;BME280;64476;55.004;73.342;2023-03-03T07:26:30;99489.50;;;-6.97;45.79
69737;BME280;64476;55.004;73.342;2023-03-03T07:29:38;99474.09;;;-7.12;46.32
69737;BME280;64476;55.004;73.342;2023-03-03T07:32:44;99460.94;;;-7.22;46.16
69737;BME280;64476;55.004;73.342;2023-03-03T07:35:53;99496.25;;;-6.96;46.31
69737;BME280;64476;55.004;73.342;2023-03-03T07:43:51;99487.78;;;-6.61;45.76
69737;BME280;64476;55.004;73.342;2023-03-03T07:46:54;99486.38;;;-6.51;45.77
69737;BME280;64476;55.004;73.342;2023-03-03T07:49:59;99468.53;;;-6.69;45.26
69737;BME280;64476;55.004;73.342;2023-03-03T07:53:02;99477.16;;;-6.54;45.34
69737;BME280;64476;55.004;73.342;2023-03-03T08:03:18;99441.03;;;-6.81;44.93
69737;BME280;64476;55.004;73.342;2023-03-03T08:07:17;99489.84;;;-6.19;44.75
69737;BME280;64476;55.004;73.342;2023-03-03T08:10:38;99497.22;;;-5.97;44.23
69737;BME280;64476;55.004;73.342;2023-03-03T08:13:44;99500.50;;;-6.11;44.41
69737;BME280;64476;55.004;73.342;2023-03-03T08:16:45;99474.94;;;-6.44;44.61
69737;BME280;64476;55.004;73.342;2023-03-03T08:24:00;99480.97;;;-6.45;44.70
69737;BME280;64476;55.004;73.342;2023-03-03T08:27:07;99451.78;;;-6.41;44.83
69737;BME280;64476;55.004;73.342;2023-03-03T08:30:09;99481.94;;;-6.14;44.52
69737;BME280;64476;55.004;73.342;2023-03-03T08:33:12;99482.97;;;-5.85;44.73
69737;BME280;64476;55.004;73.342;2023-03-03T08:36:18;99478.34;;;-5.79;44.35
69737;BME280;64476;55.004;73.342;2023-03-03T08:39:30;99472.66;;;-5.84;44.35
69737;BME280;64476;55.004;73.342;2023-03-03T08:42:32;99460.91;;;-5.88;44.22
69737;BME280;64476;55.004;73.342;2023-03-03T08:49:08;99451.44;;;-6.02;44.26
69737;BME280;64476;55.004;73.342;2023-03-03T08:52:14;99445.16;;;-5.96;44.61
69737;BME280;64476;55.004;73.342;2023-03-03T08:55:16;99406.78;;;-5.96;44.25
69737;BME280;64476;55.004;73.342;2023-03-03T08:58:19;99449.88;;;-5.73;44.01
69737;BME280;64476;55.004;73.342;2023-03-03T09:01:53;99451.50;;;-5.72;43.42
69737;BME280;64476;55.004;73.342;2023-03-03T09:04:55;99415.34;;;-5.81;43.85
69737;BME280;64476;55.004;73.342;2023-03-03T09:07:56;99441.78;;;-5.65;43.78
69737;BME280;64476;55.004;73.342;2023-03-03T09:10:59;99388.88;;;-5.80;44.23
69737;BME280;64476;55.004;73.342;2023-03-03T09:14:10;99439.53;;;-5.71;43.05
69737;BME280;64476;55.004;73.342;2023-03-03T09:17:29;99415.22;;;-6.10;43.79
69737;BME280;64476;55.004;73.342;2023-03-03T09:20:40;99386.91;;;-6.38;44.54
69737;BME280;64476;55.004;73.342;2023-03-03T09:23:54;99408.63;;;-5.98;44.52
69737;BME280;64476;55.004;73.342;2023-03-03T09:26:57;99369.31;;;-5.97;44.55
69737;BME280;64476;55.004;73.342;2023-03-03T09:30:33;99365.84;;;-5.80;44.35
69737;BME280;64476;55.004;73.342;2023-03-03T09:33:46;99431.00;;;-5.40;44.18
69737;BME280;64476;55.004;73.342;2023-03-03T09:43:46;99429.31;;;-5.25;44.19
69737;BME280;64476;55.004;73.342;2023-03-03T09:56:33;99426.25;;;-5.78;44.99
69737;BME280;64476;55.004;73.342;2023-03-03T10:00:08;99417.00;;;-5.64;45.05
69737;BME280;64476;55.004;73.342;2023-03-03T10:03:41;99418.00;;;-5.67;44.87
69737;BME280;64476;55.004;73.342;2023-03-03T10:14:36;99356.19;;;-6.70;45.85
69737;BME280;64476;55.004;73.342;2023-03-03T10:17:50;99433.13;;;-6.43;46.31
69737;BME280;64476;55.004;73.342;2023-03-03T10:24:29;99416.81;;;-6.74;46.61
69737;BME280;64476;55.004;73.342;2023-03-03T10:39:29;99435.34;;;-7.03;47.89
69737;BME280;64476;55.004;73.342;2023-03-03T10:42:42;99434.81;;;-6.93;47.39
69737;BME280;64476;55.004;73.342;2023-03-03T10:55:51;99428.34;;;-7.00;47.44
69737;BME280;64476;55.004;73.342;2023-03-03T11:10:53;99353.59;;;-7.54;47.25
69737;BME280;64476;55.004;73.342;2023-03-03T11:17:16;99446.28;;;-6.67;47.13
69737;BME280;64476;55.004;73.342;2023-03-03T11:24:43;99441.53;;;-6.57;46.85
69737;BME280;64476;55.004;73.342;2023-03-03T11:35:03;99420.97;;;-6.71;47.14
69737;BME280;64476;55.004;73.342;2023-03-03T11:38:33;99397.19;;;-7.06;47.08
69737;BME280;64476;55.004;73.342;2023-03-03T11:45:17;99459.16;;;-6.85;47.65
69737;BME280;64476;55.004;73.342;2023-03-03T11:52:11;99472.22;;;-6.92;48.14
69737;BME280;64476;55.004;73.342;2023-03-03T11:55:26;99430.47;;;-7.08;47.98
69737;BME280;64476;55.004;73.342;2023-03-03T12:02:03;99479.50;;;-6.84;48.18
69737;BME280;64476;55.004;73.342;2023-03-03T12:05:31;99426.56;;;-7.15;47.79
69737;BME280;64476;55.004;73.342;2023-03-03T12:12:41;99443.38;;;-7.65;49.24
69737;BME280;64476;55.004;73.342;2023-03-03T12:27:07;99495.06;;;-7.78;50.45
69737;BME280;64476;55.004;73.342;2023-03-03T12:30:14;99515.13;;;-7.90;50.83
69737;BME280;64476;55.004;73.342;2023-03-03T12:33:56;99504.13;;;-8.10;51.47
69737;BME280;64476;55.004;73.342;2023-03-03T12:40:34;99472.63;;;-8.47;50.85
69737;BME280;64476;55.004;73.342;2023-03-03T12:47:02;99506.50;;;-8.45;50.92
69737;BME280;64476;55.004;73.342;2023-03-03T13:00:46;99561.66;;;-8.44;51.00
69737;BME280;64476;55.004;73.342;2023-03-03T13:07:02;99568.97;;;-8.37;50.63
69737;BME280;64476;55.004;73.342;2023-03-03T13:14:37;99563.44;;;-8.67;51.30
69737;BME280;64476;55.004;73.342;2023-03-03T13:24:32;99604.06;;;-8.64;51.20
69737;BME280;64476;55.004;73.342;2023-03-03T13:27:47;99579.97;;;-8.77;51.03
69737;BME280;64476;55.004;73.342;2023-03-03T13:30:56;99608.81;;;-8.76;51.77
69737;BME280;64476;55.004;73.342;2023-03-03T13:33:59;99624.69;;;-8.70;50.98
69737;BME280;64476;55.004;73.342;2023-03-03T13:40:42;99616.16;;;-8.91;51.98
69737;BME280;64476;55.004;73.342;2023-03-03T13:43:59;99584.13;;;-9.40;51.94
69737;BME280;64476;55.004;73.342;2023-03-03T13:53:50;99651.31;;;-9.46;53.08
69737;BME280;64476;55.004;73.342;2023-03-03T13:57:06;99667.00;;;-9.81;53.87
69737;BME280;64476;55.004;73.342;2023-03-03T14:04:13;99662.69;;;-10.03;53.57
69737;BME280;64476;55.004;73.342;2023-03-03T14:17:54;99666.19;;;-10.32;53.96
69737;BME280;64476;55.004;73.342;2023-03-03T14:21:08;99685.63;;;-10.31;54.46
69737;BME280;64476;55.004;73.342;2023-03-03T14:24:20;99628.41;;;-10.68;54.08
69737;BME280;64476;55.004;73.342;2023-03-03T14:27:25;99692.56;;;-10.36;54.33
69737;BME280;64476;55.004;73.342;2023-03-03T14:30:45;99699.47;;;-10.40;54.08
69737;BME280;64476;55.004;73.342;2023-03-03T14:33:59;99703.59;;;-10.37;54.24
69737;BME280;64476;55.004;73.342;2023-03-03T14:37:26;99714.56;;;-10.35;54.54
69737;BME280;64476;55.004;73.342;2023-03-03T14:40:39;99737.00;;;-10.49;54.61
69737;BME280;64476;55.004;73.342;2023-03-03T14:47:30;99726.34;;;-10.61;54.64
69737;BME280;64476;55.004;73.342;2023-03-03T14:50:39;99647.59;;;-11.14;54.84
69737;BME280;64476;55.004;73.342;2023-03-03T14:53:47;99697.16;;;-11.03;55.28
69737;BME280;64476;55.004;73.342;2023-03-03T14:56:58;99757.88;;;-10.68;54.73
69737;BME280;64476;55.004;73.342;2023-03-03T15:03:28;99726.44;;;-10.92;54.62
69737;BME280;64476;55.004;73.342;2023-03-03T15:06:45;99748.09;;;-10.80;54.69
69737;BME280;64476;55.004;73.342;2023-03-03T15:09:49;99756.59;;;-10.81;54.34
69737;BME280;64476;55.004;73.342;2023-03-03T15:12:50;99748.00;;;-10.77;53.84
69737;BME280;64476;55.004;73.342;2023-03-03T15:26:12;99789.03;;;-10.92;54.11
69737;BME280;64476;55.004;73.342;2023-03-03T15:29:34;99727.56;;;-11.32;53.66
69737;BME280;64476;55.004;73.342;2023-03-03T15:32:48;99812.63;;;-10.89;54.02
69737;BME280;64476;55.004;73.342;2023-03-03T15:39:32;99800.56;;;-11.12;53.50
69737;BME280;64476;55.004;73.342;2023-03-03T15:42:48;99816.75;;;-11.16;53.59
69737;BME280;64476;55.004;73.342;2023-03-03T16:02:49;99866.59;;;-11.47;53.64
69737;BME280;64476;55.004;73.342;2023-03-03T16:06:00;99879.19;;;-11.44;53.71
69737;BME280;64476;55.004;73.342;2023-03-03T16:12:41;99905.31;;;-11.41;53.90
69737;BME280;64476;55.004;73.342;2023-03-03T16:16:00;99906.34;;;-11.48;54.10
69737;BME280;64476;55.004;73.342;2023-03-03T16:29:49;99942.84;;;-11.55;54.22
69737;BME280;64476;55.004;73.342;2023-03-03T16:46:30;99967.16;;;-11.46;54.00
69737;BME280;64476;55.004;73.342;2023-03-03T16:50:01;99909.72;;;-11.85;54.38
69737;BME280;64476;55.004;73.342;2023-03-03T17:03:12;99989.53;;;-11.64;54.44
69737;BME280;64476;55.004;73.342;2023-03-03T17:06:48;100002.25;;;-11.65;54.49
69737;BME280;64476;55.004;73.342;2023-03-03T17:10:24;100016.59;;;-11.66;54.68
69737;BME280;64476;55.004;73.342;2023-03-03T17:14:22;100003.25;;;-11.74;54.87
69737;BME280;64476;55.004;73.342;2023-03-03T17:20:50;100041.72;;;-11.55;54.35
69737;BME280;64476;55.004;73.342;2023-03-03T17:24:31;100042.00;;;-11.67;54.86
69737;BME280;64476;55.004;73.342;2023-03-03T17:27:50;99970.97;;;-12.05;54.23
69737;BME280;64476;55.004;73.342;2023-03-03T17:34:43;100055.16;;;-11.51;54.42
69737;BME280;64476;55.004;73.342;2023-03-03T17:52:03;100026.22;;;-11.82;53.87
69737;BME280;64476;55.004;73.342;2023-03-03T18:02:09;100097.84;;;-11.72;55.04
69737;BME280;64476;55.004;73.342;2023-03-03T18:05:48;100103.88;;;-11.78;54.25
69737;BME280;64476;55.004;73.342;2023-03-03T18:12:27;100125.31;;;-11.94;55.10
69737;BME280;64476;55.004;73.342;2023-03-03T18:19:21;100119.91;;;-11.77;54.46
69737;BME280;64476;55.004;73.342;2023-03-03T18:22:44;100135.03;;;-11.72;54.21
69737;BME280;64476;55.004;73.342;2023-03-03T18:26:02;100120.91;;;-11.84;54.14
69737;BME280;64476;55.004;73.342;2023-03-03T18:29:19;100127.75;;;-11.88;54.14
69737;BME280;64476;55.004;73.342;2023-03-03T18:32:23;100067.69;;;-12.29;54.44
69737;BME280;64476;55.004;73.342;2023-03-03T18:38:42;100144.75;;;-11.94;54.38
69737;BME280;64476;55.004;73.342;2023-03-03T18:49:05;100172.44;;;-11.84;54.13
69737;BME280;64476;55.004;73.342;2023-03-03T18:52:29;100121.59;;;-12.22;54.58
69737;BME280;64476;55.004;73.342;2023-03-03T18:55:46;100170.09;;;-11.94;54.08
69737;BME280;64476;55.004;73.342;2023-03-03T18:58:54;100197.84;;;-11.88;54.30
69737;BME280;64476;55.004;73.342;2023-03-03T19:05:54;100203.16;;;-12.04;54.31
69737;BME280;64476;55.004;73.342;2023-03-03T19:08:58;100180.59;;;-12.16;54.11
69737;BME280;64476;55.004;73.342;2023-03-03T19:12:00;100191.44;;;-12.08;54.21
69737;BME280;64476;55.004;73.342;2023-03-03T19:15:26;100225.84;;;-11.94;54.37
69737;BME280;64476;55.004;73.342;2023-03-03T19:18:32;100224.19;;;-11.97;54.43
69737;BME280;64476;55.004;73.342;2023-03-03T19:21:35;100207.41;;;-12.03;54.40
69737;BME280;64476;55.004;73.342;2023-03-03T19:28:49;100222.47;;;-11.95;54.50
69737;BME280;64476;55.004;73.342;2023-03-03T19:35:29;100228.50;;;-12.02;54.74
69737;BME280;64476;55.004;73.342;2023-03-03T19:39:00;100241.06;;;-11.96;54.34
69737;BME280;64476;55.004;73.342;2023-03-03T19:52:37;100269.44;;;-12.30;55.01
69737;BME280;64476;55.004;73.342;2023-03-03T19:55:58;100271.22;;;-12.35;54.83
69737;BME280;64476;55.004;73.342;2023-03-03T20:02:53;100293.38;;;-12.47;55.47
69737;BME280;64476;55.004;73.342;2023-03-03T20:10:06;100301.91;;;-12.55;55.89
69737;BME280;64476;55.004;73.342;2023-03-03T20:16:35;100313.78;;;-12.60;55.58
69737;BME280;64476;55.004;73.342;2023-03-03T20:26:48;100255.16;;;-12.91;55.48
69737;BME280;64476;55.004;73.342;2023-03-03T20:36:37;100184.00;;;-13.31;55.10
69737;BME280;64476;55.004;73.342;2023-03-03T20:39:48;100338.91;;;-12.44;54.81
69737;BME280;64476;55.004;73.342;2023-03-03T20:46:38;100342.22;;;-12.41;55.08
69737;BME280;64476;55.004;73.342;2023-03-03T21:00:21;100362.00;;;-12.07;54.13
69737;BME280;64476;55.004;73.342;2023-03-03T21:03:33;100368.84;;;-12.14;54.45
69737;BME280;64476;55.004;73.342;2023-03-03T21:06:37;100374.91;;;-12.24;54.48
69737;BME280;64476;55.004;73.342;2023-03-03T21:09:46;100320.50;;;-12.54;54.61
69737;BME280;64476;55.004;73.342;2023-03-03T21:12:55;100349.03;;;-12.44;54.27
69737;BME280;64476;55.004;73.342;2023-03-03T21:16:28;100344.00;;;-12.47;54.75
69737;BME280;64476;55.004;73.342;2023-03-03T21:19:33;100380.03;;;-12.30;54.52
69737;BME280;64476;55.004;73.342;2023-03-03T21:22:46;100384.25;;;-12.29;54.39
69737;BME280;64476;55.004;73.342;2023-03-03T21:25:52;100311.47;;;-12.75;54.86
69737;BME280;64476;55.004;73.342;2023-03-03T21:29:00;100391.06;;;-12.36;54.75
69737;BME280;64476;55.004;73.342;2023-03-03T21:32:05;100396.16;;;-12.34;54.35
69737;BME280;64476;55.004;73.342;2023-03-03T21:35:12;100381.38;;;-12.65;55.10
69737;BME280;64476;55.004;73.342;2023-03-03T21:38:35;100377.34;;;-12.83;55.56
69737;BME280;64476;55.004;73.342;2023-03-03T21:41:59;100329.50;;;-13.04;54.86
69737;BME280;64476;55.004;73.342;2023-03-03T21:45:14;100379.84;;;-12.80;55.04
69737;BME280;64476;55.004;73.342;2023-03-03T21:48:16;100382.41;;;-12.84;55.12
69737;BME280;64476;55.004;73.342;2023-03-03T21:51:18;100367.41;;;-13.00;54.99
69737;BME280;64476;55.004;73.342;2023-03-03T21:54:26;100414.41;;;-12.79;55.21
69737;BME280;64476;55.004;73.342;2023-03-03T21:57:28;100423.66;;;-12.74;55.18
69737;BME280;64476;55.004;73.342;2023-03-03T22:00:30;100427.94;;;-12.81;55.45
69737;BME280;64476;55.004;73.342;2023-03-03T22:03:41;100437.91;;;-12.69;55.30
69737;BME280;64476;55.004;73.342;2023-03-03T22:06:45;100374.19;;;-13.06;54.94
69737;BME280;64476;55.004;73.342;2023-03-03T22:09:53;100427.13;;;-12.83;55.17
69737;BME280;64476;55.004;73.342;2023-03-03T22:13:05;100420.38;;;-12.83;55.29
69737;BME280;64476;55.004;73.342;2023-03-03T22:16:15;100440.41;;;-12.66;54.73
69737;BME280;64476;55.004;73.342;2023-03-03T22:19:17;100391.88;;;-13.03;55.18
69737;BME280;64476;55.004;73.342;2023-03-03T22:22:29;100334.19;;;-13.49;55.31
69737;BME280;64476;55.004;73.342;2023-03-03T22:25:30;100420.47;;;-12.95;54.91
69737;BME280;64476;55.004;73.342;2023-03-03T22:28:35;100409.50;;;-12.94;54.29
69737;BME280;64476;55.004;73.342;2023-03-03T22:31:37;100390.19;;;-13.01;54.94
69737;BME280;64476;55.004;73.342;2023-03-03T22:34:44;100453.06;;;-12.66;54.74
69737;BME280;64476;55.004;73.342;2023-03-03T22:37:46;100456.41;;;-12.62;54.42
69737;BME280;64476;55.004;73.342;2023-03-03T22:40:48;100450.50;;;-12.63;54.09
69737;BME280;64476;55.004;73.342;2023-03-03T22:44:09;100461.50;;;-12.64;53.78
69737;BME280;64476;55.004;73.342;2023-03-03T22:47:11;100472.56;;;-12.74;54.46
69737;BME280;64476;55.004;73.342;2023-03-03T22:50:18;100473.53;;;-12.87;54.41
69737;BME280;64476;55.004;73.342;2023-03-03T22:53:20;100415.81;;;-13.38;54.29